This is the latest recevied weather packets stored in our database for station/object OK2CME-6. If no packets are shown the sender has not sent any weather packets the latest 10 day(s).
| Time | Temp. | Humidity | Pressure | Rain* | Wind** | Luminosity | Snow |
|---|---|---|---|---|---|---|---|
| 1778236549 | 13.89° C | 64% | 1020.5 hPa | 0 mm | - | 401 W/m² | - |
| 1778235349 | 15.56° C | 61% | 1020.5 hPa | 0 mm | - | 275 W/m² | - |
| 1778234149 | 13.33° C | 70% | 1020.7 hPa | 0 mm | - | 577 W/m² | - |
| 1778232949 | 13.33° C | 68% | 1020.6 hPa | 0 mm | - | 813 W/m² | - |
| 1778231749 | 12.78° C | 74% | 1020.6 hPa | 0 mm | - | 730 W/m² | - |
| 1778230549 | 12.22° C | 76% | 1020.6 hPa | 0 mm | - | 122 W/m² | - |
| 1778229349 | 12.22° C | 73% | 1020.4 hPa | 0 mm | - | 224 W/m² | - |
| 1778228148 | 12.78° C | 72% | 1020.2 hPa | 0 mm | - | 110 W/m² | - |
| 1778226948 | 13.33° C | 69% | 1020 hPa | 0 mm | - | 127 W/m² | - |
| 1778225749 | 12.78° C | 69% | 1020.1 hPa | 0 mm | - | 170 W/m² | - |
| 1778224548 | 12.22° C | 75% | 1020 hPa | 0 mm | - | 99 W/m² | - |
| 1778223348 | 12.78° C | 76% | 1020 hPa | 0 mm | - | 393 W/m² | - |
| 1778222148 | 10° C | 84% | 1019.8 hPa | 0 mm | - | 145 W/m² | - |
| 1778220948 | 9.44° C | 88% | 1019.7 hPa | 0 mm | - | 83 W/m² | - |
| 1778219748 | 9.44° C | 88% | 1019.7 hPa | 0 mm | - | 86 W/m² | - |
| 1778218548 | 10° C | 87% | 1019.6 hPa | 0 mm | - | 142 W/m² | - |
| 1778217348 | 10° C | 87% | 1019.6 hPa | 0 mm | - | 82 W/m² | - |
| 1778216148 | 9.44° C | 90% | 1019.4 hPa | 0 mm | - | 44 W/m² | - |
| 1778214949 | 8.89° C | 92% | 1019.3 hPa | 0 mm | - | 31 W/m² | - |
| 1778213748 | 8.33° C | 94% | 1019.4 hPa | 0 mm | - | 16 W/m² | - |
| 1778212548 | 8.33° C | 95% | 1019.1 hPa | 0 mm | - | 6 W/m² | - |
| 1778211348 | 8.33° C | 94% | 1019 hPa | 0 mm | - | 1 W/m² | - |
| 1778210148 | 8.89° C | 93% | 1018.9 hPa | 0 mm | - | 0 W/m² | - |
| 1778208948 | 9.44° C | 91% | 1018.8 hPa | 0 mm | - | 0 W/m² | - |
| 1778207748 | 9.44° C | 91% | 1018.9 hPa | 0 mm | - | 0 W/m² | - |
* Rain latest hour (hover to see other rain measurements)
** Current wind speed in m/s (hover to see current wind gust speed)